CAN3848 CYYG-CYGR
Flight info
| Callsign | CAN3848 |
|---|---|
| Flight time | N/A |
| Altitude | 9000 |
| Route | DCT |
| Aircraft | C172/L-SFG/C |
Departure
| Time | 2026-04-11 21:52 |
|---|---|
| Airport | Charlottetown Airport (CYYG) |
Arrival
| Time | N/A |
|---|---|
| Airport | Îles-de-la-Madeleine Airport (CYGR) |
| Time | Latitude | Longitude | Altitude | Speed | Heading |
|---|---|---|---|---|---|
| 2026-04-11 21:49 | 46.28666 | -63.13029 | 165 ft | 0 kts | 241° |
| 2026-04-11 21:51 | 46.28675 | -63.12996 | 164 ft | 17 kts | 67° |
| 2026-04-11 21:51 | 46.28766 | -63.12611 | 156 ft | 60 kts | 49° |
| 2026-04-11 21:51 | 46.29014 | -63.12080 | 285 ft | 62 kts | 16° |
| 2026-04-11 21:51 | 46.29407 | -63.11761 | 450 ft | 68 kts | 14° |
| 2026-04-11 21:52 | 46.29847 | -63.11401 | 621 ft | 76 kts | 15° |
| 2026-04-11 21:52 | 46.30304 | -63.10982 | 779 ft | 77 kts | 18° |
| 2026-04-11 21:52 | 46.30758 | -63.10545 | 937 ft | 79 kts | 19° |
| 2026-04-11 21:52 | 46.31220 | -63.10081 | 1098 ft | 81 kts | 18° |
| 2026-04-11 21:53 | 46.31675 | -63.09604 | 1266 ft | 80 kts | 19° |
| 2026-04-11 21:53 | 46.32129 | -63.09119 | 1391 ft | 81 kts | 21° |
| 2026-04-11 21:53 | 46.32578 | -63.08640 | 1550 ft | 81 kts | 21° |
| 2026-04-11 21:53 | 46.33017 | -63.08153 | 1722 ft | 78 kts | 22° |
| 2026-04-11 21:54 | 46.33448 | -63.07676 | 1866 ft | 77 kts | 18° |
| 2026-04-11 21:54 | 46.33877 | -63.07201 | 2018 ft | 76 kts | 20° |
| 2026-04-11 21:54 | 46.34290 | -63.06737 | 2145 ft | 74 kts | 20° |
| 2026-04-11 21:54 | 46.34693 | -63.06283 | 2289 ft | 74 kts | 12° |
| 2026-04-11 21:55 | 46.35091 | -63.05831 | 2476 ft | 69 kts | 14° |
| 2026-04-11 21:55 | 46.35466 | -63.05404 | 2683 ft | 69 kts | 15° |
| 2026-04-11 21:55 | 46.35845 | -63.04991 | 2831 ft | 68 kts | 15° |
| 2026-04-11 21:55 | 46.36227 | -63.04577 | 3022 ft | 67 kts | 9° |
| 2026-04-11 21:56 | 46.36601 | -63.04157 | 3184 ft | 68 kts | 15° |
| 2026-04-11 21:56 | 46.36967 | -63.03728 | 3347 ft | 67 kts | 14° |
| 2026-04-11 21:56 | 46.37315 | -63.03319 | 3467 ft | 64 kts | 13° |
| 2026-04-11 21:56 | 46.37644 | -63.02931 | 3618 ft | 58 kts | 8° |
| 2026-04-11 21:57 | 46.38004 | -63.02677 | 3698 ft | 62 kts | 8° |
| 2026-04-11 21:57 | 46.38369 | -63.02268 | 3782 ft | 68 kts | 14° |
| 2026-04-11 21:57 | 46.38736 | -63.01819 | 3896 ft | 68 kts | 18° |
| 2026-04-11 21:57 | 46.39101 | -63.01365 | 4006 ft | 69 kts | 15° |
| 2026-04-11 21:58 | 46.39331 | -63.01085 | 4076 ft | 69 kts | 16° |
| 2026-04-11 21:58 | 46.39543 | -63.00830 | 4121 ft | 68 kts | 14° |
| 2026-04-11 21:58 | 46.39904 | -63.00393 | 4208 ft | 68 kts | 18° |
| 2026-04-11 21:58 | 46.40267 | -62.99954 | 4293 ft | 66 kts | 14° |
| 2026-04-11 21:59 | 46.40618 | -62.99532 | 4374 ft | 64 kts | 15° |
| 2026-04-11 21:59 | 46.40870 | -62.99233 | 4443 ft | 62 kts | 11° |
| 2026-04-11 21:59 | 46.41196 | -62.98848 | 4523 ft | 57 kts | 11° |
| 2026-04-11 21:59 | 46.41493 | -62.98714 | 4516 ft | 45 kts | 298° |
| 2026-04-11 22:00 | 46.41781 | -62.99128 | 4433 ft | 63 kts | 329° |
| 2026-04-11 22:00 | 46.42257 | -62.99053 | 4498 ft | 80 kts | 9° |
| 2026-04-11 22:00 | 46.42691 | -62.98421 | 4570 ft | 92 kts | 35° |
| 2026-04-11 22:00 | 46.43074 | -62.97683 | 4651 ft | 91 kts | 32° |
| 2026-04-11 22:01 | 46.43466 | -62.96978 | 4728 ft | 89 kts | 30° |
| 2026-04-11 22:01 | 46.43873 | -62.96314 | 4807 ft | 86 kts | 27° |
| 2026-04-11 22:01 | 46.44287 | -62.95688 | 4887 ft | 85 kts | 25° |
| 2026-04-11 22:01 | 46.44707 | -62.95083 | 4965 ft | 83 kts | 23° |
| 2026-04-11 22:02 | 46.45137 | -62.94499 | 5003 ft | 87 kts | 23° |
| 2026-04-11 22:02 | 46.45618 | -62.93876 | 4979 ft | 96 kts | 24° |
| 2026-04-11 22:02 | 46.46133 | -62.93211 | 4939 ft | 103 kts | 26° |
| 2026-04-11 22:02 | 46.46688 | -62.92501 | 4915 ft | 105 kts | 26° |
| 2026-04-11 22:03 | 46.47232 | -62.91811 | 4918 ft | 104 kts | 26° |
| 2026-04-11 22:03 | 46.47784 | -62.91125 | 4912 ft | 103 kts | 25° |
| 2026-04-11 22:03 | 46.48334 | -62.90457 | 4913 ft | 102 kts | 25° |
| 2026-04-11 22:03 | 46.48886 | -62.89792 | 4915 ft | 102 kts | 24° |
| 2026-04-11 22:04 | 46.49445 | -62.89124 | 4904 ft | 101 kts | 24° |
| 2026-04-11 22:04 | 46.49990 | -62.88472 | 4916 ft | 99 kts | 24° |
| 2026-04-11 22:04 | 46.50313 | -62.88094 | 4921 ft | 100 kts | 23° |
| 2026-04-11 22:04 | 46.50484 | -62.87892 | 4932 ft | 101 kts | 24° |
| 2026-04-11 22:05 | 46.51031 | -62.87250 | 4914 ft | 101 kts | 23° |
| 2026-04-11 22:05 | 46.51578 | -62.86610 | 4912 ft | 101 kts | 25° |
| 2026-04-11 22:05 | 46.52125 | -62.85967 | 4908 ft | 99 kts | 21° |
| 2026-04-11 22:05 | 46.52658 | -62.85346 | 4912 ft | 96 kts | 19° |
| 2026-04-11 22:06 | 46.53176 | -62.84745 | 4902 ft | 93 kts | 22° |
| 2026-04-11 22:06 | 46.53672 | -62.84170 | 4896 ft | 89 kts | 19° |
| 2026-04-11 22:06 | 46.54143 | -62.83619 | 4879 ft | 83 kts | 19° |
| 2026-04-11 22:06 | 46.54581 | -62.83102 | 4880 ft | 77 kts | 16° |
| 2026-04-11 22:07 | 46.54973 | -62.82645 | 4889 ft | 67 kts | 13° |
| 2026-04-11 22:07 | 46.55320 | -62.82272 | 4865 ft | 54 kts | 354° |
| 2026-04-11 22:07 | 46.55711 | -62.82080 | 4720 ft | 66 kts | 26° |
| 2026-04-11 22:07 | 46.55972 | -62.81398 | 4601 ft | 66 kts | 21° |
| 2026-04-11 22:08 | 46.56354 | -62.81219 | 4391 ft | 57 kts | 336° |
| 2026-04-11 22:08 | 46.56410 | -62.81580 | 4171 ft | 84 kts | 245° |
| 2026-04-11 22:08 | 46.55923 | -62.81743 | 4120 ft | 100 kts | 149° |
| 2026-04-11 22:08 | 46.55497 | -62.80860 | 3912 ft | 98 kts | 91° |
| 2026-04-11 22:09 | 46.55560 | -62.80087 | 3798 ft | 68 kts | 7° |
| 2026-04-11 22:09 | 46.55923 | -62.80034 | 3694 ft | 48 kts | 354° |
| 2026-04-11 22:09 | 46.56250 | -62.79657 | 3514 ft | 64 kts | 28° |
| 2026-04-11 22:09 | 46.56549 | -62.79353 | 3227 ft | 56 kts | 327° |
| 2026-04-11 22:10 | 46.56852 | -62.79515 | 3153 ft | 36 kts | 327° |
| 2026-04-11 22:10 | 46.56897 | -62.79968 | 2743 ft | 67 kts | 279° |
| 2026-04-11 22:10 | 46.56987 | -62.80466 | 2653 ft | 44 kts | 303° |
| 2026-04-11 22:10 | 46.57101 | -62.80889 | 2480 ft | 42 kts | 311° |
| 2026-04-11 22:11 | 46.57229 | -62.81234 | 2278 ft | 51 kts | 274° |
| 2026-04-11 22:11 | 46.56921 | -62.81513 | 1542 ft | 93 kts | 278° |
| 2026-04-11 22:11 | 46.56715 | -62.81682 | 79 ft | 123 kts | 216° |
| 2026-04-11 22:11 | 46.56599 | -62.81776 | 25 ft | 113 kts | 218° |